createdAt,value
2019-01-03T00:00:06.534Z,103257.31
2019-01-03T00:02:32.555Z,103265.63
2019-01-03T00:04:58.598Z,103263.47
2019-01-03T00:07:24.601Z,103259.95
2019-01-03T00:09:50.595Z,103255.93
2019-01-03T00:12:16.690Z,103247.17
2019-01-03T00:14:42.694Z,103236.22
2019-01-03T00:17:08.727Z,103238.01
2019-01-03T00:19:34.723Z,103240.27
2019-01-03T00:22:00.783Z,103242.44
2019-01-03T00:24:26.783Z,103242.50
2019-01-03T00:26:53.783Z,103248.19
2019-01-03T00:29:20.019Z,103250.89
2019-01-03T00:31:46.026Z,103253.93
2019-01-03T00:34:12.055Z,103254.78
2019-01-03T00:36:38.088Z,103257.01
2019-01-03T00:39:04.104Z,103255.69
2019-01-03T00:41:30.138Z,103242.98
2019-01-03T00:43:56.150Z,103245.14
2019-01-03T00:46:22.190Z,103246.02
2019-01-03T00:48:48.207Z,103238.17
2019-01-03T00:51:14.232Z,103236.86
2019-01-03T00:53:40.231Z,103241.19
2019-01-03T00:56:06.247Z,103247.34
2019-01-03T00:58:32.379Z,103239.42
2019-01-03T01:00:58.433Z,103247.78
2019-01-03T01:03:24.523Z,103248.66
2019-01-03T01:05:50.538Z,103247.27
2019-01-03T01:08:16.571Z,103249.90
2019-01-03T01:10:42.578Z,103245.84
2019-01-03T01:13:08.581Z,103255.08
2019-01-03T01:15:34.598Z,103256.87
2019-01-03T01:18:00.614Z,103269.58
2019-01-03T01:20:26.725Z,103264.78
2019-01-03T01:22:52.739Z,103262.92
2019-01-03T01:25:18.743Z,103278.74
2019-01-03T01:27:45.022Z,103285.88
2019-01-03T01:30:11.031Z,103291.15
2019-01-03T01:32:37.030Z,103286.34
2019-01-03T01:35:03.042Z,103288.51
2019-01-03T01:37:29.111Z,103301.86
2019-01-03T01:39:55.164Z,103290.16
2019-01-03T01:42:21.179Z,103288.67
2019-01-03T01:44:47.206Z,103294.42
2019-01-03T01:47:13.211Z,103294.95
2019-01-03T01:49:39.247Z,103299.14
2019-01-03T01:52:05.259Z,103301.53
2019-01-03T01:54:31.333Z,103299.36
2019-01-03T01:56:57.599Z,103299.36
2019-01-03T01:59:23.643Z,103300.37
2019-01-03T02:01:50.287Z,103301.69
2019-01-03T02:04:16.308Z,103295.63
2019-01-03T02:06:42.319Z,103293.00
2019-01-03T02:09:08.367Z,103293.63
2019-01-03T02:11:34.442Z,103295.48
2019-01-03T02:14:00.462Z,103321.91
2019-01-03T02:16:26.462Z,103333.86
2019-01-03T02:18:52.478Z,103324.64
2019-01-03T02:21:18.581Z,103323.75
2019-01-03T02:23:44.581Z,103326.55
2019-01-03T02:26:10.621Z,103322.13
2019-01-03T02:28:36.635Z,103327.33
2019-01-03T02:31:02.672Z,103322.06
2019-01-03T02:33:28.667Z,103314.16
2019-01-03T02:35:54.678Z,103314.53
2019-01-03T02:38:20.680Z,103310.98
2019-01-03T02:40:46.682Z,103310.52
2019-01-03T02:43:12.700Z,103299.81
2019-01-03T02:45:38.711Z,103300.13
2019-01-03T02:48:04.722Z,103294.78
2019-01-03T02:50:30.721Z,103295.09
2019-01-03T02:52:56.752Z,103297.20
2019-01-03T02:55:22.751Z,103291.08
2019-01-03T02:57:48.787Z,103285.71
2019-01-03T03:00:14.979Z,103286.97
2019-01-03T03:02:40.978Z,103285.23
2019-01-03T03:05:06.979Z,103281.22
2019-01-03T03:07:33.254Z,103275.10
2019-01-03T03:09:59.280Z,103265.41
2019-01-03T03:12:25.276Z,103256.11
2019-01-03T03:14:51.313Z,103257.80
2019-01-03T03:17:17.342Z,103251.61
2019-01-03T03:19:43.345Z,103256.73
2019-01-03T03:22:09.348Z,103247.33
2019-01-03T03:24:35.721Z,103244.69
2019-01-03T03:27:01.995Z,103243.31
2019-01-03T03:29:28.102Z,103241.11
2019-01-03T03:31:54.123Z,103246.32
2019-01-03T03:34:20.123Z,103239.66
2019-01-03T03:36:46.196Z,103238.81
2019-01-03T03:39:12.314Z,103238.34
2019-01-03T03:41:38.324Z,103231.21
2019-01-03T03:44:04.623Z,103228.09
2019-01-03T03:46:30.665Z,103229.42
2019-01-03T03:48:56.977Z,103231.21
2019-01-03T03:51:23.019Z,103233.44
2019-01-03T03:53:49.041Z,103240.88
2019-01-03T03:56:15.376Z,103236.08
2019-01-03T03:58:41.395Z,103238.24
2019-01-03T04:01:07.407Z,103246.09
2019-01-03T04:03:33.780Z,103246.02
2019-01-03T04:05:59.787Z,103247.71
2019-01-03T04:08:25.884Z,103238.86
2019-01-03T04:10:51.905Z,103233.98
2019-01-03T04:13:17.905Z,103238.62
2019-01-03T04:15:43.917Z,103230.81
2019-01-03T04:18:10.459Z,103227.70
2019-01-03T04:20:36.559Z,103232.02
2019-01-03T04:23:02.705Z,103231.18
2019-01-03T04:25:28.768Z,103242.20
2019-01-03T04:27:54.773Z,103239.87
2019-01-03T04:30:21.106Z,103236.86
2019-01-03T04:32:47.128Z,103232.44
2019-01-03T04:35:13.130Z,103229.32
2019-01-03T04:37:39.137Z,103234.13
2019-01-03T04:40:05.429Z,103239.02
2019-01-03T04:42:31.440Z,103239.50
2019-01-03T04:44:57.454Z,103238.72
2019-01-03T04:47:23.479Z,103233.04
2019-01-03T04:49:49.502Z,103237.47
2019-01-03T04:52:15.515Z,103229.56
2019-01-03T04:54:41.692Z,103226.92
2019-01-03T04:57:08.251Z,103226.45
2019-01-03T04:59:34.341Z,103231.18
2019-01-03T05:02:01.324Z,103229.80
2019-01-03T05:04:27.347Z,103226.21
2019-01-03T05:06:53.379Z,103216.98
2019-01-03T05:09:19.519Z,103217.45
2019-01-03T05:11:45.620Z,103225.30
2019-01-03T05:14:11.646Z,103234.13
2019-01-03T05:16:37.690Z,103239.80
2019-01-03T05:19:03.698Z,103229.80
2019-01-03T05:21:30.074Z,103226.69
2019-01-03T05:23:57.451Z,103222.36
2019-01-03T05:26:23.866Z,103222.80
2019-01-03T05:28:49.872Z,103224.12
2019-01-03T05:31:15.911Z,103228.07
2019-01-03T05:33:42.022Z,103229.93
2019-01-03T05:36:08.025Z,103232.56
2019-01-03T05:38:34.060Z,103233.45
2019-01-03T05:41:00.134Z,103228.17
2019-01-03T05:43:26.203Z,103226.75
2019-01-03T05:45:52.196Z,103229.39
2019-01-03T05:48:18.199Z,103226.69
2019-01-03T05:50:44.244Z,103224.42
2019-01-03T05:53:10.367Z,103222.66
2019-01-03T05:55:36.414Z,103226.14
2019-01-03T05:58:02.779Z,103224.34
2019-01-03T06:00:28.779Z,103224.72
2019-01-03T06:02:54.795Z,103233.21
2019-01-03T06:05:20.795Z,103221.34
2019-01-03T06:07:46.860Z,103223.50
2019-01-03T06:10:12.868Z,103219.62
2019-01-03T06:12:38.886Z,103227.53
2019-01-03T06:15:04.882Z,103223.67
2019-01-03T06:17:30.913Z,103230.64
2019-01-03T06:19:56.942Z,103229.70
2019-01-03T06:22:23.011Z,103225.30
2019-01-03T06:24:49.042Z,103231.95
2019-01-03T06:27:15.102Z,103236.39
2019-01-03T06:29:41.240Z,103231.48
2019-01-03T06:32:07.255Z,103234.53
2019-01-03T06:34:33.257Z,103239.87
2019-01-03T06:36:59.266Z,103240.25
2019-01-03T06:39:25.309Z,103238.02
2019-01-03T06:41:51.344Z,103243.19
2019-01-03T06:44:17.379Z,103243.59
2019-01-03T06:46:43.531Z,103241.50
2019-01-03T06:49:09.795Z,103243.19
2019-01-03T06:51:36.119Z,103250.73
2019-01-03T06:54:02.210Z,103246.84
2019-01-03T06:56:28.252Z,103249.41
2019-01-03T06:58:54.269Z,103246.77
2019-01-03T07:01:20.653Z,103248.09
2019-01-03T07:03:46.746Z,103247.14
2019-01-03T07:06:12.752Z,103255.16
2019-01-03T07:08:38.811Z,103256.95
2019-01-03T07:11:04.838Z,103262.59
2019-01-03T07:13:30.859Z,103256.48
2019-01-03T07:15:57.133Z,103262.59
2019-01-03T07:18:23.132Z,103252.99
2019-01-03T07:20:49.171Z,103256.38
2019-01-03T07:23:15.182Z,103252.89
2019-01-03T07:25:41.219Z,103256.78
2019-01-03T07:28:07.362Z,103250.19
2019-01-03T07:30:33.360Z,103256.68
2019-01-03T07:32:59.394Z,103259.31
2019-01-03T07:35:25.430Z,103262.84
2019-01-03T07:37:51.435Z,103263.20
2019-01-03T07:40:17.441Z,103267.23
2019-01-03T07:42:43.430Z,103263.28
2019-01-03T07:45:09.443Z,103261.52
2019-01-03T07:47:35.444Z,103267.23
2019-01-03T07:50:01.470Z,103269.88
2019-01-03T07:52:27.791Z,103276.94
2019-01-03T07:54:53.791Z,103277.48
2019-01-03T07:57:19.815Z,103273.08
2019-01-03T07:59:45.842Z,103287.11
2019-01-03T08:02:11.834Z,103283.16
2019-01-03T08:04:37.883Z,103280.99
2019-01-03T08:07:03.907Z,103286.17
2019-01-03T08:09:29.923Z,103289.66
2019-01-03T08:11:57.908Z,103290.06
2019-01-03T08:14:23.698Z,103288.27
2019-01-03T08:16:49.767Z,103283.36
2019-01-03T08:19:15.822Z,103282.05
2019-01-03T08:21:41.940Z,103284.14
2019-01-03T08:24:07.970Z,103279.81
2019-01-03T08:26:33.991Z,103278.50
2019-01-03T08:29:00.013Z,103291.69
2019-01-03T08:31:26.024Z,103293.48
2019-01-03T08:33:52.029Z,103292.06
2019-01-03T08:36:18.286Z,103286.00
2019-01-03T08:38:44.298Z,103287.73
2019-01-03T08:41:10.333Z,103283.36
2019-01-03T08:43:36.339Z,103287.33
2019-01-03T08:46:02.426Z,103292.16
2019-01-03T08:48:28.418Z,103293.07
2019-01-03T08:50:54.432Z,103296.96
2019-01-03T08:53:20.467Z,103293.84
2019-01-03T08:55:46.528Z,103296.42
2019-01-03T08:58:12.559Z,103294.63
2019-01-03T09:00:38.630Z,103294.16
2019-01-03T09:03:04.727Z,103301.16
2019-01-03T09:05:30.916Z,103305.11
2019-01-03T09:07:56.918Z,103300.45
2019-01-03T09:10:22.947Z,103307.34
2019-01-03T09:12:48.947Z,103306.88
2019-01-03T09:15:14.978Z,103312.62
2019-01-03T09:17:40.999Z,103310.83
2019-01-03T09:20:07.077Z,103307.75
2019-01-03T09:22:33.074Z,103306.03
2019-01-03T09:24:59.081Z,103304.34
2019-01-03T09:27:25.113Z,103312.25
2019-01-03T09:29:51.129Z,103307.81
2019-01-03T09:32:17.154Z,103306.88
2019-01-03T09:34:43.191Z,103309.14
2019-01-03T09:37:09.191Z,103313.64
2019-01-03T09:39:35.206Z,103313.27
2019-01-03T09:42:01.318Z,103313.70
2019-01-03T09:44:27.378Z,103318.91
2019-01-03T09:46:53.388Z,103323.27
2019-01-03T09:49:19.411Z,103321.01
2019-01-03T09:51:45.434Z,103323.58
2019-01-03T09:54:11.442Z,103317.36
2019-01-03T09:56:37.489Z,103315.67
2019-01-03T09:59:03.481Z,103321.32
2019-01-03T10:01:29.539Z,103329.23
2019-01-03T10:03:55.612Z,103331.56
2019-01-03T10:06:21.622Z,103325.75
2019-01-03T10:08:47.731Z,103323.95
2019-01-03T10:11:13.958Z,103323.11
2019-01-03T10:13:40.195Z,103320.95
2019-01-03T10:16:06.218Z,103322.27
2019-01-03T10:18:32.261Z,103321.79
2019-01-03T10:20:58.380Z,103313.03
2019-01-03T10:23:24.423Z,103318.20
2019-01-03T10:25:50.436Z,103313.41
2019-01-03T10:28:16.463Z,103317.43
2019-01-03T10:30:42.555Z,103306.88
2019-01-03T10:33:08.607Z,103306.50
2019-01-03T10:35:34.724Z,103307.34
2019-01-03T10:38:00.883Z,103305.55
2019-01-03T10:40:26.945Z,103299.84
2019-01-03T10:42:52.942Z,103298.89
2019-01-03T10:45:18.974Z,103306.80
2019-01-03T10:47:44.999Z,103306.80
2019-01-03T10:50:11.259Z,103295.41
2019-01-03T10:52:37.266Z,103291.76
2019-01-03T10:55:03.259Z,103283.06
2019-01-03T10:57:29.278Z,103285.53
2019-01-03T10:59:55.274Z,103278.09
2019-01-03T11:02:21.274Z,103275.08
2019-01-03T11:04:47.330Z,103278.94
2019-01-03T11:07:13.339Z,103273.66
2019-01-03T11:09:39.378Z,103275.92
2019-01-03T11:12:05.383Z,103281.10
2019-01-03T11:14:31.444Z,103279.72
2019-01-03T11:16:57.489Z,103274.06
2019-01-03T11:19:23.598Z,103272.58
2019-01-03T11:21:49.604Z,103265.14
2019-01-03T11:24:15.620Z,103269.09
2019-01-03T11:26:41.638Z,103264.30
2019-01-03T11:29:07.660Z,103272.20
2019-01-03T11:31:33.731Z,103263.88
2019-01-03T11:33:59.723Z,103261.31
2019-01-03T11:36:25.754Z,103264.83
2019-01-03T11:38:51.822Z,103259.08
2019-01-03T11:41:17.842Z,103259.55
2019-01-03T11:43:43.851Z,103253.33
2019-01-03T11:46:09.869Z,103250.70
2019-01-03T11:48:35.890Z,103245.82
2019-01-03T11:51:01.975Z,103246.73
2019-01-03T11:53:28.018Z,103244.57
2019-01-03T11:55:55.019Z,103242.41
2019-01-03T11:58:21.038Z,103236.59
2019-01-03T12:00:47.057Z,103236.48
2019-01-03T12:03:13.063Z,103237.50
2019-01-03T12:05:39.311Z,103239.13
2019-01-03T12:08:05.439Z,103242.61
2019-01-03T12:10:31.442Z,103245.25
2019-01-03T12:12:57.470Z,103243.93
2019-01-03T12:15:23.482Z,103233.78
2019-01-03T12:17:49.491Z,103238.11
2019-01-03T12:20:15.518Z,103230.67
2019-01-03T12:22:41.526Z,103230.30
2019-01-03T12:25:07.599Z,103219.27
2019-01-03T12:27:33.641Z,103223.70
2019-01-03T12:29:59.652Z,103221.06
2019-01-03T12:32:25.674Z,103222.38
2019-01-03T12:34:51.738Z,103222.28
2019-01-03T12:37:17.871Z,103223.23
2019-01-03T12:39:43.903Z,103224.44
2019-01-03T12:42:09.953Z,103227.55
2019-01-03T12:44:35.959Z,103235.64
2019-01-03T12:47:02.305Z,103240.92
2019-01-03T12:49:28.333Z,103239.23
2019-01-03T12:51:54.422Z,103242.23
2019-01-03T12:54:20.493Z,103237.91
2019-01-03T12:56:46.558Z,103232.63
2019-01-03T12:59:12.632Z,103226.47
2019-01-03T13:01:38.655Z,103219.81
2019-01-03T13:04:04.716Z,103220.76
2019-01-03T13:06:30.726Z,103222.08
2019-01-03T13:08:56.768Z,103212.37
2019-01-03T13:11:23.016Z,103211.83
2019-01-03T13:13:49.131Z,103218.80
2019-01-03T13:16:15.154Z,103214.77
2019-01-03T13:18:41.195Z,103224.55
2019-01-03T13:21:07.241Z,103217.17
2019-01-03T13:23:33.246Z,103220.59
2019-01-03T13:25:59.327Z,103223.70
2019-01-03T13:28:25.406Z,103225.39
2019-01-03T13:30:51.414Z,103234.08
2019-01-03T13:33:17.474Z,103242.47
2019-01-03T13:35:43.584Z,103247.81
2019-01-03T13:38:09.600Z,103244.80
2019-01-03T13:40:35.631Z,103240.92
2019-01-03T13:43:01.679Z,103247.88
2019-01-03T13:45:27.696Z,103245.18
2019-01-03T13:47:53.722Z,103238.66
2019-01-03T13:50:20.004Z,103233.37
2019-01-03T13:52:46.096Z,103231.21
2019-01-03T13:55:12.115Z,103234.33
2019-01-03T13:57:38.171Z,103232.63
2019-01-03T14:00:04.200Z,103229.59
2019-01-03T14:02:30.435Z,103219.27
2019-01-03T14:04:56.476Z,103218.42
2019-01-03T14:07:22.548Z,103225.32
2019-01-03T14:09:48.563Z,103226.16
2019-01-03T14:12:14.691Z,103225.32
2019-01-03T14:14:40.732Z,103225.69
2019-01-03T14:17:06.767Z,103226.16
2019-01-03T14:19:32.791Z,103229.28
2019-01-03T14:21:58.791Z,103231.92
2019-01-03T14:24:24.906Z,103235.00
2019-01-03T14:26:50.919Z,103239.53
2019-01-03T14:29:16.944Z,103233.78
2019-01-03T14:31:44.012Z,103241.22
2019-01-03T14:34:10.340Z,103242.17
2019-01-03T14:36:36.361Z,103244.33
2019-01-03T14:39:02.385Z,103248.77
2019-01-03T14:41:28.398Z,103248.36
2019-01-03T14:43:54.435Z,103247.88
2019-01-03T14:46:20.462Z,103253.16
2019-01-03T14:48:46.842Z,103245.34
2019-01-03T14:51:12.856Z,103243.63
2019-01-03T14:53:38.867Z,103243.19
2019-01-03T14:56:04.901Z,103240.62
2019-01-03T14:58:30.943Z,103244.50
2019-01-03T15:00:57.077Z,103241.87
2019-01-03T15:03:23.207Z,103245.72
2019-01-03T15:05:49.208Z,103241.29
2019-01-03T15:08:15.224Z,103235.58
2019-01-03T15:10:41.322Z,103235.47
2019-01-03T15:13:07.347Z,103231.92
2019-01-03T15:15:33.464Z,103230.19
2019-01-03T15:17:59.461Z,103227.48
2019-01-03T15:20:25.471Z,103230.19
2019-01-03T15:22:51.493Z,103233.68
2019-01-03T15:25:17.518Z,103242.06
2019-01-03T15:27:43.557Z,103242.54
2019-01-03T15:30:09.579Z,103239.05
2019-01-03T15:32:35.647Z,103237.27
2019-01-03T15:35:02.028Z,103242.91
2019-01-03T15:37:28.305Z,103241.59
2019-01-03T15:39:54.321Z,103234.62
2019-01-03T15:42:20.327Z,103242.54
2019-01-03T15:44:46.377Z,103241.59
2019-01-03T15:47:12.379Z,103249.98
2019-01-03T15:49:38.380Z,103249.51
2019-01-03T15:52:04.503Z,103248.66
2019-01-03T15:54:30.548Z,103247.28
2019-01-03T15:56:56.559Z,103251.70
2019-01-03T15:59:22.559Z,103250.93
2019-01-03T16:01:48.596Z,103246.13
2019-01-03T16:04:14.683Z,103249.68
2019-01-03T16:06:40.759Z,103257.13
2019-01-03T16:09:06.766Z,103258.44
2019-01-03T16:11:32.810Z,103250.52
2019-01-03T16:13:58.827Z,103249.13
2019-01-03T16:16:24.827Z,103250.39
2019-01-03T16:18:50.850Z,103252.25
2019-01-03T16:21:16.977Z,103255.80
2019-01-03T16:23:43.055Z,103259.31
2019-01-03T16:26:09.138Z,103261.48
2019-01-03T16:28:35.237Z,103261.95
2019-01-03T16:31:01.288Z,103259.22
2019-01-03T16:33:27.317Z,103257.42
2019-01-03T16:35:53.342Z,103256.20
2019-01-03T16:38:19.477Z,103257.52
2019-01-03T16:40:45.495Z,103260.53
2019-01-03T16:43:11.514Z,103261.86
2019-01-03T16:45:37.504Z,103266.66
2019-01-03T16:48:03.529Z,103264.02
2019-01-03T16:50:29.552Z,103264.13
2019-01-03T16:52:55.618Z,103261.02
2019-01-03T16:55:21.636Z,103262.80
2019-01-03T16:57:47.639Z,103258.75
2019-01-03T17:00:13.668Z,103256.58
2019-01-03T17:02:39.735Z,103267.53
2019-01-03T17:05:05.734Z,103267.44
2019-01-03T17:07:31.811Z,103264.91
2019-01-03T17:09:57.838Z,103271.87
2019-01-03T17:12:23.982Z,103269.70
2019-01-03T17:14:49.978Z,103264.49
2019-01-03T17:17:16.010Z,103262.80
2019-01-03T17:19:42.173Z,103268.99
2019-01-03T17:22:08.216Z,103264.13
2019-01-03T17:24:34.524Z,103259.31
2019-01-03T17:27:00.689Z,103264.49
2019-01-03T17:29:26.691Z,103261.48
2019-01-03T17:31:52.816Z,103264.13
2019-01-03T17:34:18.952Z,103265.81
2019-01-03T17:36:44.984Z,103265.91
2019-01-03T17:39:10.990Z,103273.36
2019-01-03T17:41:37.019Z,103279.48
2019-01-03T17:44:03.036Z,103278.53
2019-01-03T17:46:29.126Z,103276.84
2019-01-03T17:48:55.169Z,103281.17
2019-01-03T17:51:21.250Z,103283.74
2019-01-03T17:53:47.288Z,103288.24
2019-01-03T17:56:13.406Z,103284.22
2019-01-03T17:58:39.481Z,103281.65
2019-01-03T18:01:05.581Z,103289.09
2019-01-03T18:03:31.624Z,103285.60
2019-01-03T18:05:57.723Z,103287.39
2019-01-03T18:08:23.736Z,103279.41
2019-01-03T18:10:49.723Z,103272.88
2019-01-03T18:13:15.740Z,103275.15
2019-01-03T18:15:41.796Z,103273.42
2019-01-03T18:18:07.869Z,103268.55
2019-01-03T18:20:33.934Z,103266.76
2019-01-03T18:22:59.948Z,103266.29
2019-01-03T18:25:25.984Z,103259.63
2019-01-03T18:27:52.048Z,103260.00
2019-01-03T18:30:18.095Z,103266.66
2019-01-03T18:32:44.100Z,103267.06
2019-01-03T18:35:10.180Z,103260.94
2019-01-03T18:37:36.213Z,103266.66
2019-01-03T18:40:02.238Z,103277.63
2019-01-03T18:42:28.417Z,103279.78
2019-01-03T18:44:54.429Z,103273.66
2019-01-03T18:47:20.463Z,103273.19
2019-01-03T18:49:46.564Z,103274.03
2019-01-03T18:52:12.823Z,103274.81
2019-01-03T18:54:38.846Z,103275.19
2019-01-03T18:57:04.958Z,103272.11
2019-01-03T18:59:31.050Z,103271.70
2019-01-03T19:01:57.096Z,103269.53
2019-01-03T19:04:23.098Z,103277.52
2019-01-03T19:06:49.153Z,103274.13
2019-01-03T19:09:15.209Z,103281.65
2019-01-03T19:11:41.267Z,103290.51
2019-01-03T19:14:07.311Z,103284.92
2019-01-03T19:16:33.383Z,103281.10
2019-01-03T19:18:59.399Z,103281.44
2019-01-03T19:21:25.406Z,103277.02
2019-01-03T19:23:55.366Z,103284.45
2019-01-03T19:26:19.197Z,103287.47
2019-01-03T19:28:45.211Z,103295.78
2019-01-03T19:31:11.247Z,103295.31
2019-01-03T19:33:37.671Z,103296.16
2019-01-03T19:36:03.803Z,103286.45
2019-01-03T19:38:29.894Z,103285.53
2019-01-03T19:40:55.903Z,103298.33
2019-01-03T19:43:22.193Z,103298.73
2019-01-03T19:45:48.301Z,103300.42
2019-01-03T19:48:14.333Z,103301.73
2019-01-03T19:50:40.363Z,103306.17
2019-01-03T19:53:06.493Z,103307.49
2019-01-03T19:55:32.538Z,103296.56
2019-01-03T19:57:58.651Z,103295.25
2019-01-03T20:00:24.724Z,103299.64
2019-01-03T20:02:50.809Z,103311.08
2019-01-03T20:05:16.843Z,103313.72
2019-01-03T20:07:42.874Z,103311.45
2019-01-03T20:10:08.972Z,103307.49
2019-01-03T20:12:35.001Z,103303.06
2019-01-03T20:15:03.344Z,103306.48
2019-01-03T20:17:29.365Z,103306.95
2019-01-03T20:19:55.430Z,103306.95
2019-01-03T20:22:21.479Z,103307.86
2019-01-03T20:24:47.534Z,103301.27
2019-01-03T20:27:13.575Z,103300.96
2019-01-03T20:29:39.707Z,103301.37
2019-01-03T20:32:05.737Z,103299.58
2019-01-03T20:34:31.872Z,103303.53
2019-01-03T20:36:57.996Z,103306.17
2019-01-03T20:39:24.018Z,103300.96
2019-01-03T20:41:50.027Z,103295.25
2019-01-03T20:44:16.074Z,103289.09
2019-01-03T20:46:42.100Z,103295.69
2019-01-03T20:49:08.175Z,103292.67
2019-01-03T20:51:34.277Z,103291.83
2019-01-03T20:54:00.373Z,103294.53
2019-01-03T20:56:26.455Z,103293.63
2019-01-03T20:58:52.509Z,103288.78
2019-01-03T21:01:18.518Z,103289.26
2019-01-03T21:03:44.544Z,103281.88
2019-01-03T21:06:10.534Z,103280.97
2019-01-03T21:08:36.574Z,103281.44
2019-01-03T21:11:02.623Z,103279.72
2019-01-03T21:13:28.771Z,103285.40
2019-01-03T21:15:54.763Z,103288.11
2019-01-03T21:18:20.775Z,103288.11
2019-01-03T21:20:47.131Z,103285.16
2019-01-03T21:23:13.163Z,103291.66
2019-01-03T21:25:39.204Z,103292.61
2019-01-03T21:28:05.304Z,103292.13
2019-01-03T21:30:32.472Z,103287.02
2019-01-03T21:32:58.514Z,103292.30
2019-01-03T21:35:24.520Z,103295.00
2019-01-03T21:37:50.534Z,103295.47
2019-01-03T21:40:16.538Z,103301.77
2019-01-03T21:42:42.584Z,103299.12
2019-01-03T21:45:08.679Z,103293.92
2019-01-03T21:47:34.683Z,103290.37
2019-01-03T21:50:00.726Z,103289.42
2019-01-03T21:52:26.808Z,103299.97
2019-01-03T21:54:52.903Z,103293.07
2019-01-03T21:57:18.926Z,103300.52
2019-01-03T21:59:44.959Z,103305.89
2019-01-03T22:02:10.963Z,103300.68
2019-01-03T22:04:36.991Z,103308.05
2019-01-03T22:07:03.011Z,103307.67
2019-01-03T22:09:29.582Z,103307.38
2019-01-03T22:11:55.593Z,103307.75
2019-01-03T22:14:21.607Z,103307.81
2019-01-03T22:16:47.741Z,103309.13
2019-01-03T22:19:13.775Z,103309.13
2019-01-03T22:21:40.129Z,103307.06
2019-01-03T22:24:06.250Z,103306.59
2019-01-03T22:26:32.381Z,103306.66
2019-01-03T22:28:58.455Z,103306.66
2019-01-03T22:31:24.483Z,103307.50
2019-01-03T22:33:50.596Z,103304.49
2019-01-03T22:36:16.662Z,103306.28
2019-01-03T22:38:42.675Z,103311.16
2019-01-03T22:41:08.695Z,103306.75
2019-01-03T22:43:34.690Z,103309.83
2019-01-03T22:46:00.721Z,103310.78
2019-01-03T22:48:26.734Z,103306.04
2019-01-03T22:50:52.883Z,103310.06
2019-01-03T22:53:19.030Z,103309.52
2019-01-03T22:55:45.044Z,103306.20
2019-01-03T22:58:11.046Z,103310.63
2019-01-03T23:00:37.066Z,103305.80
2019-01-03T23:03:03.247Z,103306.74
2019-01-03T23:05:29.279Z,103300.99
2019-01-03T23:07:55.288Z,103303.56
2019-01-03T23:10:21.550Z,103302.72
2019-01-03T23:12:47.544Z,103301.47
2019-01-03T23:15:13.592Z,103311.23
2019-01-03T23:17:39.606Z,103315.13
2019-01-03T23:20:05.727Z,103321.72
2019-01-03T23:22:31.765Z,103324.83
2019-01-03T23:24:57.938Z,103322.63
2019-01-03T23:27:23.956Z,103318.36
2019-01-03T23:29:49.983Z,103317.45
2019-01-03T23:32:15.986Z,103311.77
2019-01-03T23:34:42.027Z,103303.48
2019-01-03T23:37:08.058Z,103301.76
2019-01-03T23:39:34.169Z,103295.17
2019-01-03T23:42:00.199Z,103298.21
2019-01-03T23:44:26.200Z,103291.22
2019-01-03T23:46:52.349Z,103293.41
2019-01-03T23:49:18.519Z,103294.73
2019-01-03T23:51:44.535Z,103301.76
2019-01-03T23:54:10.544Z,103293.00
2019-01-03T23:56:36.576Z,103295.73
2019-01-03T23:59:02.604Z,103296.65
